Time;durP1;ratioP1;P1;durP2;ratioP2;P2;SDS_P1;SDS_P2;PMS_P1;PMS_P2;Temp;Humidity;BMP_temperature;BMP_pressure;BME280_temperature;BME280_humidity;BME280_pressure;Samples;Min_cycle;Max_cycle;Signal;HPM_P1;HPM_P2
2021/11/30 00:01:53;;;;;;;6.28;3.27;;;;;;;4.27;57.89;98133.32;1728203;81;21106;-69
2021/11/30 00:04:20;;;;;;;5.78;2.62;;;;;;;4.27;57.72;98109.08;1754517;80;21098;-70
2021/11/30 00:06:47;;;;;;;5.67;2.52;;;;;;;4.28;57.63;98113.30;1763005;80;21098;-72
2021/11/30 00:12:17;;;;;;;6.85;3.45;;;;;;;4.34;57.70;98118.42;1762992;80;21965;-71
2021/11/30 00:14:46;;;;;;;7.35;2.98;;;;;;;4.35;57.43;98124.80;1754551;80;21082;-75
2021/11/30 00:17:14;;;;;;;6.10;3.15;;;;;;;4.37;57.65;98130.72;1752494;80;21099;-68
2021/11/30 00:19:42;;;;;;;6.35;3.20;;;;;;;4.39;57.34;98146.20;1752530;80;21106;-71
2021/11/30 00:22:10;;;;;;;5.62;2.80;;;;;;;4.41;57.43;98144.27;1756584;80;21055;-68
2021/11/30 00:24:36;;;;;;;7.83;3.02;;;;;;;4.40;57.51;98143.43;1753773;80;21048;-67
2021/11/30 00:27:05;;;;;;;8.68;2.75;;;;;;;4.41;57.44;98153.39;1754852;80;21615;-66
2021/11/30 00:29:33;;;;;;;6.30;2.85;;;;;;;4.40;57.85;98142.62;1738835;80;21612;-67
2021/11/30 00:32:00;;;;;;;6.58;3.20;;;;;;;4.40;57.98;98155.15;1754964;80;21074;-72
2021/11/30 00:34:27;;;;;;;6.37;3.25;;;;;;;4.42;58.07;98164.13;1757586;80;21141;-68
2021/11/30 00:36:54;;;;;;;6.35;2.92;;;;;;;4.42;58.41;98160.22;1755672;80;21037;-70
2021/11/30 00:39:21;;;;;;;4.92;2.35;;;;;;;4.44;58.09;98173.95;1751405;80;21051;-73
2021/11/30 00:41:49;;;;;;;4.83;2.40;;;;;;;4.46;58.34;98166.33;1754786;80;21050;-67
2021/11/30 00:44:20;;;;;;;6.20;2.75;;;;;;;4.46;58.12;98175.44;1755171;80;21053;-65
2021/11/30 00:46:47;;;;;;;5.40;2.33;;;;;;;4.47;58.25;98168.44;1763664;80;21062;-67
2021/11/30 00:49:14;;;;;;;4.95;2.33;;;;;;;4.49;58.41;98169.61;1760243;80;21762;-66
2021/11/30 00:51:42;;;;;;;6.97;2.85;;;;;;;4.48;58.54;98178.40;1733450;82;21624;-67
2021/11/30 00:54:10;;;;;;;5.65;2.70;;;;;;;4.48;58.85;98192.23;1758900;80;21046;-65
2021/11/30 00:56:40;;;;;;;5.65;2.50;;;;;;;4.51;59.03;98197.66;1757158;80;21055;-67
2021/11/30 00:59:07;;;;;;;5.90;3.00;;;;;;;4.61;59.20;98195.87;1762028;80;21089;-68
2021/11/30 01:01:36;;;;;;;7.22;2.65;;;;;;;4.64;59.15;98195.11;1734456;80;21098;-69
2021/11/30 01:04:03;;;;;;;6.03;2.83;;;;;;;4.64;59.43;98200.80;1740481;80;21133;-65
2021/11/30 01:06:29;;;;;;;5.28;2.45;;;;;;;4.60;59.52;98226.77;1761922;80;21025;-69
2021/11/30 01:08:56;;;;;;;6.55;2.25;;;;;;;4.55;59.71;98211.55;1763579;80;21047;-61
2021/11/30 01:11:23;;;;;;;5.62;2.67;;;;;;;4.52;59.91;98181.05;1765648;80;21526;-69
2021/11/30 01:13:49;;;;;;;6.90;3.12;;;;;;;4.46;60.01;98212.39;1770873;80;22128;-72
2021/11/30 01:16:16;;;;;;;6.50;3.10;;;;;;;4.38;59.85;98207.84;1755886;80;21082;-69
2021/11/30 01:18:45;;;;;;;7.17;3.27;;;;;;;4.35;60.29;98212.52;1760582;80;21066;-65
2021/11/30 01:21:11;;;;;;;6.03;2.60;;;;;;;4.34;60.55;98208.25;1766293;80;21090;-69
2021/11/30 01:23:37;;;;;;;5.85;3.08;;;;;;;4.31;60.56;98248.91;1760958;80;21203;-69
2021/11/30 01:26:04;;;;;;;6.55;2.55;;;;;;;4.28;60.34;98199.22;1732226;80;21803;-69
2021/11/30 01:28:31;;;;;;;5.40;2.35;;;;;;;4.27;60.58;98198.41;1766040;80;21061;-66
2021/11/30 01:30:58;;;;;;;5.95;2.10;;;;;;;4.32;60.36;98198.00;1762884;80;21027;-68
2021/11/30 01:33:25;;;;;;;5.80;2.55;;;;;;;4.40;60.19;98181.67;1674765;82;21589;-68
2021/11/30 01:35:52;;;;;;;7.47;3.17;;;;;;;4.47;60.01;98186.67;1760063;80;22214;-68
2021/11/30 01:38:18;;;;;;;6.10;2.83;;;;;;;4.50;60.25;98190.30;1758554;80;21935;-78
2021/11/30 01:40:46;;;;;;;6.58;3.08;;;;;;;4.52;60.20;98184.95;1759980;80;21590;-70
2021/11/30 01:43:19;;;;;;;6.10;2.95;;;;;;;4.50;60.19;98186.89;1763650;80;21077;-69
2021/11/30 01:50:57;;;;;;;7.62;3.52;;;;;;;4.36;60.23;98207.17;1761640;80;21103;-68
2021/11/30 01:53:24;;;;;;;6.80;2.83;;;;;;;4.33;60.64;98209.23;1763839;80;21140;-70
2021/11/30 01:55:50;;;;;;;5.80;2.90;;;;;;;4.30;60.60;98216.00;1728418;80;21113;-68
2021/11/30 01:59:26;;;;;;;6.22;3.12;;;;;;;4.27;61.05;98236.64;1772523;78;22692;-69
2021/11/30 02:01:53;;;;;;;7.95;3.20;;;;;;;4.24;61.61;98255.95;1736602;80;21101;-69
2021/11/30 02:04:20;;;;;;;6.00;3.20;;;;;;;4.26;61.72;98216.27;1706904;81;21495;-65
2021/11/30 02:06:46;;;;;;;8.18;3.05;;;;;;;4.26;61.84;98209.77;1711357;81;21131;-75
2021/11/30 02:09:13;;;;;;;5.50;2.62;;;;;;;4.24;62.25;98199.97;1712095;81;21074;-67
2021/11/30 02:11:40;;;;;;;5.72;2.75;;;;;;;4.23;62.65;98215.23;1689989;82;21045;-68
2021/11/30 02:14:06;;;;;;;5.72;2.77;;;;;;;4.20;62.99;98247.23;1709250;82;21070;-68
2021/11/30 02:16:33;;;;;;;6.17;2.67;;;;;;;4.11;62.90;98244.96;1714508;83;21061;-71
2021/11/30 02:19:02;;;;;;;6.80;2.75;;;;;;;4.05;63.17;98215.56;1716059;83;21041;-72
2021/11/30 02:21:36;;;;;;;6.22;2.80;;;;;;;4.04;63.29;98224.34;1717829;82;21041;-66
2021/11/30 02:24:04;;;;;;;6.80;3.22;;;;;;;4.09;63.13;98250.78;1715099;83;21058;-69
2021/11/30 02:26:34;;;;;;;6.15;3.20;;;;;;;4.12;63.01;98219.29;1688139;81;21092;-68
2021/11/30 02:29:04;;;;;;;6.05;3.12;;;;;;;4.09;62.73;98233.87;1710863;83;21110;-69
2021/11/30 02:31:37;;;;;;;7.05;3.12;;;;;;;4.04;62.61;98223.86;1690240;83;21083;-70
2021/11/30 02:34:05;;;;;;;6.30;2.98;;;;;;;4.00;62.80;98216.44;1701142;83;21552;-73
2021/11/30 02:36:47;;;;;;;5.78;2.55;;;;;;;3.98;62.90;98223.56;1712576;83;21063;-70
2021/11/30 02:39:07;;;;;;;7.60;3.37;;;;;;;3.94;62.85;98232.13;1683871;83;21077;-66
2021/11/30 02:41:35;;;;;;;7.60;2.83;;;;;;;3.93;62.70;98223.14;1715543;82;22175;-64
2021/11/30 02:44:02;;;;;;;6.33;3.02;;;;;;;3.93;62.55;98259.58;1706895;82;21094;-66
2021/11/30 02:46:34;;;;;;;5.62;2.70;;;;;;;4.03;62.38;98278.64;1717616;81;21065;-65
2021/11/30 02:49:01;;;;;;;6.08;2.92;;;;;;;4.12;62.08;98224.95;1710160;81;21583;-66
2021/11/30 02:51:27;;;;;;;6.03;2.40;;;;;;;4.11;62.25;98240.24;1687070;83;21049;-73
2021/11/30 02:53:58;;;;;;;6.87;2.83;;;;;;;4.07;62.30;98246.20;1715006;82;22216;-71
2021/11/30 02:56:23;;;;;;;6.70;3.02;;;;;;;4.04;62.29;98247.27;1712189;81;21093;-71
2021/11/30 02:58:50;;;;;;;7.45;2.85;;;;;;;4.03;62.21;98245.62;1703436;82;21541;-71
2021/11/30 03:01:17;;;;;;;7.65;2.72;;;;;;;4.02;62.06;98247.08;1702254;82;21344;-64
2021/11/30 03:03:45;;;;;;;6.92;2.58;;;;;;;4.00;62.44;98255.02;1723209;81;21035;-69
2021/11/30 03:06:12;;;;;;;8.40;3.05;;;;;;;4.01;62.31;98259.25;1701922;82;21521;-68
2021/11/30 03:08:40;;;;;;;6.28;3.05;;;;;;;4.05;62.32;98275.41;1718639;81;21063;-65
2021/11/30 03:11:08;;;;;;;6.25;2.55;;;;;;;4.13;62.06;98267.77;1730091;81;21067;-69
2021/11/30 03:13:36;;;;;;;5.20;2.50;;;;;;;4.16;62.08;98253.19;1733418;80;21595;-70
2021/11/30 03:16:04;;;;;;;6.05;2.67;;;;;;;4.13;62.19;98268.25;1735695;80;21118;-67
2021/11/30 03:18:35;;;;;;;5.80;2.75;;;;;;;4.06;62.42;98249.75;1730734;81;21051;-71
2021/11/30 03:21:04;;;;;;;6.80;3.35;;;;;;;4.03;62.65;98235.70;1727052;81;21467;-68
2021/11/30 03:23:31;;;;;;;5.87;2.80;;;;;;;3.99;62.67;98244.73;1729519;82;21083;-71
2021/11/30 03:25:58;;;;;;;6.05;2.80;;;;;;;3.95;62.41;98267.61;1730075;81;21029;-68
2021/11/30 03:28:25;;;;;;;8.53;2.98;;;;;;;3.95;62.53;98259.80;1737376;82;21042;-69
2021/11/30 03:31:01;;;;;;;6.00;2.65;;;;;;;3.91;62.46;98267.02;1725934;81;21127;-68
2021/11/30 03:36:08;;;;;;;6.03;2.70;;;;;;;4.06;61.96;98276.59;1690324;82;21078;-64
2021/11/30 03:38:35;;;;;;;6.58;3.47;;;;;;;4.12;61.73;98275.70;1720129;80;21016;-65
2021/11/30 03:41:02;;;;;;;6.65;3.15;;;;;;;4.08;61.27;98279.91;1689067;83;21020;-65
2021/11/30 03:43:30;;;;;;;7.20;2.87;;;;;;;4.06;61.30;98277.89;1691092;83;21094;-69
2021/11/30 03:45:57;;;;;;;6.58;2.30;;;;;;;4.06;60.44;98292.69;1696676;83;21011;-71
2021/11/30 03:48:25;;;;;;;5.92;2.40;;;;;;;4.02;60.42;98266.59;1696387;82;21572;-65
2021/11/30 03:50:51;;;;;;;6.40;3.05;;;;;;;4.00;60.55;98291.45;1693926;82;21583;-65
2021/11/30 03:53:17;;;;;;;5.72;2.70;;;;;;;3.98;60.48;98301.14;1725459;80;21534;-70
2021/11/30 03:55:44;;;;;;;6.22;3.00;;;;;;;3.96;60.49;98256.22;1685619;82;21202;-67
2021/11/30 03:58:10;;;;;;;6.20;3.30;;;;;;;3.96;60.67;98273.14;1704099;82;21049;-65
2021/11/30 04:00:37;;;;;;;6.72;3.05;;;;;;;3.94;60.65;98288.55;1712367;82;21594;-67
2021/11/30 04:03:04;;;;;;;6.40;3.50;;;;;;;3.92;60.92;98296.48;1711923;82;21533;-71
2021/11/30 04:05:31;;;;;;;6.55;2.80;;;;;;;3.95;60.82;98300.59;1710256;82;21109;-69
2021/11/30 04:07:58;;;;;;;6.95;3.12;;;;;;;4.04;60.11;98316.73;1694291;84;21108;-67
2021/11/30 04:10:24;;;;;;;6.03;2.55;;;;;;;4.06;59.56;98335.62;1659627;84;21625;-70
2021/11/30 04:12:51;;;;;;;6.40;2.85;;;;;;;4.08;59.90;98322.00;1686329;84;21076;-70
2021/11/30 04:15:17;;;;;;;7.00;2.95;;;;;;;4.04;59.45;98330.55;1685339;83;21067;-70
2021/11/30 04:17:46;;;;;;;7.80;3.08;;;;;;;4.06;59.42;98317.41;1691112;84;21071;-70
2021/11/30 04:20:13;;;;;;;6.90;2.87;;;;;;;4.06;59.25;98323.92;1692490;84;21057;-72
2021/11/30 04:22:41;;;;;;;5.83;3.00;;;;;;;4.06;59.45;98326.03;1693059;84;21441;-70
2021/11/30 04:25:10;;;;;;;8.00;2.67;;;;;;;4.04;58.58;98340.15;1687194;82;21048;-64
2021/11/30 04:27:37;;;;;;;5.35;2.55;;;;;;;4.04;58.56;98322.75;1681999;84;21630;-70
2021/11/30 04:30:06;;;;;;;6.08;2.83;;;;;;;4.06;58.69;98329.13;1691640;84;20988;-70
2021/11/30 04:32:34;;;;;;;9.68;2.92;;;;;;;4.03;58.03;98351.50;1687452;82;23278;-66
2021/11/30 04:35:00;;;;;;;7.50;3.17;;;;;;;4.02;58.02;98370.21;1685048;82;21067;-70
2021/11/30 04:37:28;;;;;;;5.78;2.77;;;;;;;4.02;58.15;98379.80;1677930;84;21138;-68
2021/11/30 04:39:55;;;;;;;11.57;2.65;;;;;;;4.03;58.29;98349.72;1697854;82;21010;-72
2021/11/30 04:42:25;;;;;;;6.28;2.60;;;;;;;4.04;57.94;98353.98;1686027;84;21093;-68
2021/11/30 04:44:55;;;;;;;5.62;3.20;;;;;;;4.05;58.42;98371.25;1681367;82;23909;-72
2021/11/30 04:47:18;;;;;;;5.87;2.60;;;;;;;4.03;58.08;98387.94;1679553;84;21094;-70
2021/11/30 04:52:20;;;;;;;6.47;3.13;;;;;;;4.03;57.90;98357.52;1690880;82;21059;-67
2021/11/30 04:54:47;;;;;;;6.35;2.83;;;;;;;4.02;57.79;98366.79;1683214;84;21106;-66
2021/11/30 04:57:14;;;;;;;7.50;2.80;;;;;;;4.03;57.73;98373.62;1685614;84;21508;-67
2021/11/30 04:59:41;;;;;;;5.42;2.65;;;;;;;4.05;57.72;98382.12;1697384;83;21160;-70
2021/11/30 05:02:07;;;;;;;5.70;2.80;;;;;;;4.05;57.86;98384.27;1711613;82;22559;-69
2021/11/30 05:04:35;;;;;;;6.15;2.50;;;;;;;4.05;57.41;98384.27;1677749;83;21065;-68
2021/11/30 05:07:03;;;;;;;6.12;2.40;;;;;;;4.05;57.09;98426.36;1676804;83;21501;-73
2021/11/30 05:09:30;;;;;;;4.67;1.95;;;;;;;4.08;57.29;98390.97;1670634;83;21121;-66
2021/11/30 05:11:57;;;;;;;5.97;2.40;;;;;;;4.09;56.47;98396.05;1701322;82;21075;-75
2021/11/30 05:14:24;;;;;;;7.92;3.02;;;;;;;4.12;56.91;98392.37;1699077;83;21654;-68
2021/11/30 05:16:51;;;;;;;5.53;2.35;;;;;;;4.12;56.53;98401.48;1697207;83;21123;-68
2021/11/30 05:19:17;;;;;;;7.30;2.80;;;;;;;4.14;56.05;98403.48;1673077;83;21074;-64
2021/11/30 05:21:43;;;;;;;4.92;2.22;;;;;;;4.15;55.98;98426.42;1700424;83;21093;-65
2021/11/30 05:24:10;;;;;;;5.72;2.10;;;;;;;4.16;56.26;98414.58;1702836;83;21020;-70
2021/11/30 05:26:37;;;;;;;7.20;2.50;;;;;;;4.14;55.84;98421.70;1700429;83;21577;-66
2021/11/30 05:29:04;;;;;;;4.80;2.40;;;;;;;4.16;56.09;98418.97;1697805;82;21134;-68
2021/11/30 05:31:31;;;;;;;6.58;2.87;;;;;;;4.17;55.94;98417.53;1696665;82;21084;-71
2021/11/30 05:33:59;;;;;;;5.00;2.33;;;;;;;4.18;56.05;98438.69;1699424;83;21122;-69
2021/11/30 05:36:25;;;;;;;6.97;2.37;;;;;;;4.21;55.80;98443.64;1701621;82;21125;-64
2021/11/30 05:38:52;;;;;;;6.87;2.55;;;;;;;4.22;55.85;98445.30;1700623;83;21064;-68
2021/11/30 05:41:21;;;;;;;7.72;2.30;;;;;;;4.21;55.61;98459.27;1699706;82;21161;-70
2021/11/30 05:43:47;;;;;;;6.75;2.33;;;;;;;4.22;55.68;98451.81;1699968;82;21126;-67
2021/11/30 05:46:14;;;;;;;5.03;2.05;;;;;;;4.18;55.43;98459.52;1690088;83;21123;-68
2021/11/30 05:48:41;;;;;;;4.90;1.95;;;;;;;4.21;55.30;98463.66;1693812;82;21130;-71
2021/11/30 05:51:08;;;;;;;4.85;2.20;;;;;;;4.22;55.22;98465.28;1689497;83;21070;-68
2021/11/30 05:53:36;;;;;;;6.33;2.22;;;;;;;4.22;55.50;98460.92;1694876;83;21075;-65
2021/11/30 05:56:04;;;;;;;5.45;2.00;;;;;;;4.20;54.96;98507.09;1695749;83;21082;-65
2021/11/30 05:58:35;;;;;;;5.42;1.80;;;;;;;4.22;55.34;98473.09;1692529;83;21719;-70
2021/11/30 06:01:06;;;;;;;4.58;1.77;;;;;;;4.23;55.45;98489.89;1695339;82;21077;-62
2021/11/30 06:03:31;;;;;;;4.42;1.85;;;;;;;4.24;55.17;98497.25;1689350;83;21680;-63
2021/11/30 06:05:56;;;;;;;4.92;1.85;;;;;;;4.22;55.10;98512.99;1674406;84;21063;-71
2021/11/30 06:08:23;;;;;;;4.85;1.77;;;;;;;4.22;54.83;98482.20;1695171;84;21071;-65
2021/11/30 06:10:50;;;;;;;5.87;2.05;;;;;;;4.22;55.19;98496.52;1674191;84;21245;-68
2021/11/30 06:13:17;;;;;;;5.65;1.92;;;;;;;4.19;55.25;98489.00;1697290;84;21419;-70
2021/11/30 06:15:44;;;;;;;3.98;1.60;;;;;;;4.18;55.32;98493.84;1695252;83;21071;-64
2021/11/30 06:18:10;;;;;;;4.55;1.60;;;;;;;4.17;54.78;98504.74;1691276;83;21067;-71
2021/11/30 06:20:37;;;;;;;7.28;1.90;;;;;;;4.16;54.80;98508.29;1689096;82;21103;-67
2021/11/30 06:23:04;;;;;;;4.05;1.45;;;;;;;4.15;55.25;98515.73;1692751;83;21337;-68
2021/11/30 06:25:31;;;;;;;4.15;1.60;;;;;;;4.13;54.54;98526.76;1705004;83;21117;-63
2021/11/30 06:27:58;;;;;;;5.92;2.62;;;;;;;4.08;54.82;98514.15;1742466;81;21059;-71
2021/11/30 06:30:25;;;;;;;3.83;1.47;;;;;;;4.07;55.01;98519.48;1739933;82;21633;-64
2021/11/30 06:32:51;;;;;;;5.05;1.50;;;;;;;4.07;54.89;98532.49;1738466;80;21696;-70
2021/11/30 06:35:18;;;;;;;3.72;1.30;;;;;;;4.07;54.56;98527.29;1735304;80;21065;-64
2021/11/30 06:37:45;;;;;;;3.77;1.42;;;;;;;4.03;54.57;98551.90;1742974;80;21034;-64
2021/11/30 06:40:12;;;;;;;3.37;1.15;;;;;;;4.00;54.86;98547.79;1739874;81;21086;-66
2021/11/30 06:42:39;;;;;;;3.25;1.30;;;;;;;4.00;54.88;98549.55;1739616;81;20991;-66
2021/11/30 06:45:07;;;;;;;3.42;1.20;;;;;;;4.00;54.82;98527.42;1742200;81;21054;-68
2021/11/30 06:47:33;;;;;;;4.90;1.52;;;;;;;3.97;54.72;98561.50;1724348;80;21066;-60
2021/11/30 06:50:00;;;;;;;3.05;1.00;;;;;;;3.94;54.67;98551.37;1738418;80;21055;-60
2021/11/30 06:52:26;;;;;;;2.58;0.90;;;;;;;3.95;54.24;98577.72;1741900;81;21561;-63
2021/11/30 06:54:54;;;;;;;4.53;1.20;;;;;;;3.94;54.20;98547.47;1741606;81;21058;-67
2021/11/30 06:57:22;;;;;;;3.33;0.95;;;;;;;3.89;53.42;98573.38;1702014;82;21567;-67
2021/11/30 06:59:51;;;;;;;3.98;0.85;;;;;;;3.92;52.85;98550.19;1701658;82;21144;-69
2021/11/30 07:02:17;;;;;;;3.77;1.00;;;;;;;3.90;52.77;98565.92;1674284;83;21400;-69
2021/11/30 07:04:46;;;;;;;5.42;0.98;;;;;;;3.87;52.47;98595.28;1672613;83;21123;-66
2021/11/30 07:13:21;;;;;;;2.20;0.70;;;;;;;3.81;52.79;98570.56;1697431;83;21130;-67
2021/11/30 07:20:04;;;;;;;3.42;1.25;;;;;;;3.80;52.32;98578.48;1694354;83;21122;-69
2021/11/30 07:25:55;;;;;;;3.87;1.22;;;;;;;3.77;51.56;98608.20;1693052;83;21070;-68
2021/11/30 07:28:29;;;;;;;2.67;0.85;;;;;;;3.75;51.34;98570.23;1654742;84;22335;-68
2021/11/30 07:31:09;;;;;;;4.05;1.47;;;;;;;3.76;50.94;98576.61;1690524;83;21069;-66
2021/11/30 07:33:37;;;;;;;2.90;0.85;;;;;;;3.79;51.15;98589.86;1693861;83;21072;-76
2021/11/30 07:36:09;;;;;;;3.37;0.80;;;;;;;3.83;51.49;98588.66;1694656;83;21111;-69
2021/11/30 07:41:25;;;;;;;1.87;0.72;;;;;;;3.90;51.30;98586.74;1864096;76;22014;-69
2021/11/30 07:43:52;;;;;;;2.67;0.80;;;;;;;3.96;51.51;98587.20;1850455;76;20961;-64
2021/11/30 07:46:18;;;;;;;2.37;0.80;;;;;;;3.95;51.50;98579.02;1844161;76;21105;-69
2021/11/30 07:48:45;;;;;;;2.35;0.82;;;;;;;3.98;51.70;98584.80;1811340;76;20970;-64
2021/11/30 07:51:16;;;;;;;2.85;0.95;;;;;;;3.99;51.62;98607.77;1849259;75;21495;-67
2021/11/30 07:53:41;;;;;;;3.27;1.07;;;;;;;3.96;51.97;98587.20;1840806;76;21374;-70
2021/11/30 07:56:08;;;;;;;4.42;1.32;;;;;;;3.97;52.09;98585.77;1809765;77;21126;-67
2021/11/30 07:58:35;;;;;;;2.55;0.93;;;;;;;4.02;52.23;98602.32;1805295;77;21002;-73
2021/11/30 08:01:02;;;;;;;2.90;0.90;;;;;;;4.02;52.14;98583.62;1836655;77;21471;-72
2021/11/30 08:03:28;;;;;;;4.37;1.22;;;;;;;4.04;52.01;98610.83;1843662;76;20971;-66
2021/11/30 08:05:55;;;;;;;3.08;1.00;;;;;;;4.05;52.60;98569.51;1806257;77;21073;-69
2021/11/30 08:08:21;;;;;;;6.65;1.37;;;;;;;4.08;52.26;98623.47;1804591;77;21051;-69
2021/11/30 08:10:48;;;;;;;4.47;1.57;;;;;;;4.12;52.57;98579.79;1749936;80;21192;-69
2021/11/30 08:13:14;;;;;;;4.00;1.27;;;;;;;4.12;52.86;98580.24;1794836;78;21159;-67
2021/11/30 08:15:41;;;;;;;4.97;1.57;;;;;;;4.17;53.06;98586.74;1778951;78;21528;-73
2021/11/30 08:18:10;;;;;;;6.53;1.60;;;;;;;4.22;52.90;98581.13;1772918;79;21695;-65
2021/11/30 08:20:37;;;;;;;3.98;1.35;;;;;;;4.24;52.71;98585.28;1802033;77;21054;-75
2021/11/30 08:23:04;;;;;;;5.12;1.98;;;;;;;4.27;53.11;98584.22;1802285;77;21786;-66
2021/11/30 08:25:31;;;;;;;3.95;1.65;;;;;;;4.29;53.02;98599.22;1803715;77;21062;-74
2021/11/30 08:27:58;;;;;;;4.83;1.80;;;;;;;4.26;52.97;98578.16;1804442;77;21547;-68
2021/11/30 08:30:25;;;;;;;4.42;1.77;;;;;;;4.27;52.78;98587.63;1782714;79;21055;-78
2021/11/30 08:32:51;;;;;;;5.75;2.50;;;;;;;4.27;53.06;98586.81;1793046;77;21053;-66
2021/11/30 08:35:18;;;;;;;7.92;2.00;;;;;;;4.29;52.48;98582.30;1812011;78;21035;-66
2021/11/30 08:37:45;;;;;;;5.20;1.95;;;;;;;4.28;51.73;98596.27;1802476;78;21033;-72
2021/11/30 08:40:12;;;;;;;7.83;3.45;;;;;;;4.32;51.94;98579.91;1802720;77;21503;-68
2021/11/30 08:42:42;;;;;;;4.92;2.30;;;;;;;4.34;51.63;98589.71;1761374;80;21071;-65
2021/11/30 08:45:09;;;;;;;5.58;2.17;;;;;;;4.34;52.03;98568.87;1782698;79;21539;-76
2021/11/30 08:47:36;;;;;;;7.70;3.52;;;;;;;4.37;52.61;98573.38;1787411;78;21122;-66
2021/11/30 08:50:07;;;;;;;5.80;2.70;;;;;;;4.42;52.62;98576.88;1766454;79;21112;-71
2021/11/30 08:52:33;;;;;;;5.30;2.33;;;;;;;4.42;51.74;98559.95;1783677;78;21122;-66
2021/11/30 08:55:01;;;;;;;6.25;2.47;;;;;;;4.42;51.63;98571.22;1784846;78;22436;-69
2021/11/30 08:57:28;;;;;;;5.40;2.40;;;;;;;4.43;51.60;98584.56;1785540;79;21115;-68
2021/11/30 08:59:55;;;;;;;5.05;2.00;;;;;;;4.43;51.71;98561.13;1756828;79;21037;-67
2021/11/30 09:02:22;;;;;;;6.00;2.20;;;;;;;4.44;51.53;98567.19;1783714;78;21097;-66
2021/11/30 09:04:49;;;;;;;8.23;2.65;;;;;;;4.44;51.84;98579.72;1786379;78;21002;-66
2021/11/30 09:07:16;;;;;;;6.10;2.25;;;;;;;4.44;52.00;98585.41;1759747;79;21082;-65
2021/11/30 09:09:45;;;;;;;5.58;2.20;;;;;;;4.42;51.47;98558.65;1755555;79;21041;-66
2021/11/30 09:12:12;;;;;;;5.25;2.22;;;;;;;4.44;51.99;98561.48;1786785;78;21918;-69
2021/11/30 09:14:38;;;;;;;11.18;2.70;;;;;;;4.45;51.58;98551.89;1779148;78;21109;-67
2021/11/30 09:17:05;;;;;;;7.75;2.80;;;;;;;4.47;51.97;98570.81;1787304;78;21117;-64
2021/11/30 09:19:32;;;;;;;6.62;2.85;;;;;;;4.49;51.45;98557.20;1788669;78;21057;-67
2021/11/30 09:21:59;;;;;;;11.00;2.90;;;;;;;4.50;51.55;98560.63;1791498;78;21086;-65
2021/11/30 09:24:25;;;;;;;5.78;2.58;;;;;;;4.50;51.74;98554.11;1758213;79;21105;-67
2021/11/30 09:26:52;;;;;;;6.58;2.90;;;;;;;4.50;51.70;98570.55;1787198;79;21623;-64
2021/11/30 09:29:18;;;;;;;5.97;2.52;;;;;;;4.51;51.74;98556.59;1786164;79;21528;-67
2021/11/30 09:31:45;;;;;;;6.12;2.75;;;;;;;4.51;52.05;98550.08;1786907;79;21485;-64
2021/11/30 09:34:11;;;;;;;9.30;2.42;;;;;;;4.51;51.69;98549.27;1759941;79;21593;-67
2021/11/30 09:36:42;;;;;;;6.83;2.65;;;;;;;4.45;51.70;98573.56;1782785;78;21509;-63
2021/11/30 09:39:07;;;;;;;4.60;1.82;;;;;;;4.43;52.07;98571.55;1787438;79;21000;-65
2021/11/30 09:41:34;;;;;;;6.25;2.67;;;;;;;4.38;52.17;98571.11;1767322;79;21124;-66
2021/11/30 09:44:00;;;;;;;8.23;2.92;;;;;;;4.33;52.50;98556.34;1790147;79;21112;-64
2021/11/30 09:46:27;;;;;;;6.53;2.77;;;;;;;4.34;52.03;98557.16;1761814;79;21210;-64
2021/11/30 09:48:53;;;;;;;5.33;2.30;;;;;;;4.33;52.26;98548.53;1784385;79;21128;-69
2021/11/30 09:51:19;;;;;;;5.72;2.05;;;;;;;4.36;51.80;98541.77;1791294;79;21148;-72
2021/11/30 09:53:46;;;;;;;5.70;2.00;;;;;;;4.35;50.75;98551.83;1776726;79;21068;-68
2021/11/30 09:56:13;;;;;;;5.37;2.17;;;;;;;4.32;50.90;98563.83;1785558;79;21096;-70
2021/11/30 09:58:40;;;;;;;7.33;2.30;;;;;;;4.36;51.08;98556.58;1787145;78;21093;-70
2021/11/30 10:01:10;;;;;;;4.85;1.67;;;;;;;4.35;49.98;98558.83;1783653;78;21790;-70
2021/11/30 10:03:40;;;;;;;4.20;1.70;;;;;;;4.33;49.81;98572.45;1779642;78;21077;-68
2021/11/30 10:06:07;;;;;;;6.03;1.65;;;;;;;4.30;49.19;98552.69;1805986;77;21039;-67
2021/11/30 10:08:38;;;;;;;4.90;1.75;;;;;;;4.24;48.56;98558.42;1779477;78;21061;-70
2021/11/30 10:11:05;;;;;;;9.60;1.62;;;;;;;4.24;49.00;98562.33;1790724;77;21054;-72
2021/11/30 10:13:31;;;;;;;5.08;1.77;;;;;;;4.25;49.42;98560.91;1777762;78;21046;-66
2021/11/30 10:16:02;;;;;;;3.22;1.15;;;;;;;4.26;49.49;98565.63;1778974;79;21066;-67
2021/11/30 10:18:38;;;;;;;5.08;2.42;;;;;;;4.28;49.61;98565.02;1776037;79;21069;-65
2021/11/30 10:21:23;;;;;;;4.37;1.40;;;;;;;4.31;49.59;98562.65;1779945;79;21679;-65
2021/11/30 10:24:03;;;;;;;3.77;1.30;;;;;;;4.33;49.54;98570.66;1758591;78;21132;-67
2021/11/30 10:26:38;;;;;;;3.85;1.47;;;;;;;4.32;48.93;98570.79;1801290;77;21541;-65
2021/11/30 10:29:10;;;;;;;6.22;1.60;;;;;;;4.30;48.98;98576.13;1778781;78;21149;-66
2021/11/30 10:31:44;;;;;;;4.62;2.00;;;;;;;4.30;49.65;98571.41;1772288;78;21354;-66
2021/11/30 10:34:24;;;;;;;4.53;1.45;;;;;;;4.29;50.07;98566.67;1786351;79;21093;-69
2021/11/30 10:37:06;;;;;;;4.50;1.80;;;;;;;4.29;50.55;98582.30;1781256;79;21073;-65
2021/11/30 10:39:35;;;;;;;4.00;1.55;;;;;;;4.31;50.96;98582.17;1749358;78;21249;-66
2021/11/30 10:42:24;;;;;;;5.20;1.80;;;;;;;4.28;51.08;98576.25;1775858;78;21113;-64
2021/11/30 10:44:53;;;;;;;5.28;2.05;;;;;;;4.26;51.30;98579.95;1771125;78;21092;-69
2021/11/30 10:47:23;;;;;;;5.47;2.02;;;;;;;4.22;51.52;98578.53;1769503;80;21085;-69
2021/11/30 10:49:55;;;;;;;5.58;1.80;;;;;;;4.18;51.82;98579.27;1802909;78;21113;-65
2021/11/30 10:52:28;;;;;;;4.90;1.90;;;;;;;4.13;52.17;98571.02;1772953;78;21088;-67
2021/11/30 10:55:16;;;;;;;4.85;1.77;;;;;;;4.13;52.56;98572.31;1803115;77;22301;-71
2021/11/30 10:57:44;;;;;;;4.50;1.65;;;;;;;4.14;52.44;98564.05;1750900;79;21145;-68
2021/11/30 11:00:28;;;;;;;5.00;2.20;;;;;;;4.11;52.68;98575.52;1739653;79;21106;-70
2021/11/30 11:03:00;;;;;;;7.15;2.37;;;;;;;4.07;53.06;98567.63;1744916;79;21117;-67
2021/11/30 11:05:27;;;;;;;4.85;1.70;;;;;;;4.06;53.25;98550.35;1803086;77;21274;-68
2021/11/30 11:08:16;;;;;;;5.10;2.17;;;;;;;4.05;52.92;98559.09;1804451;78;21359;-69
2021/11/30 11:10:51;;;;;;;5.22;2.00;;;;;;;4.04;52.85;98566.09;1803937;77;21061;-69
2021/11/30 11:13:24;;;;;;;4.37;1.57;;;;;;;4.05;52.82;98582.07;1737926;80;21796;-66
2021/11/30 11:15:55;;;;;;;5.67;2.30;;;;;;;4.04;53.10;98584.31;1778138;78;21285;-69
2021/11/30 11:18:37;;;;;;;5.22;2.10;;;;;;;4.06;52.86;98566.78;1793504;77;21692;-67
2021/11/30 11:21:30;;;;;;;4.05;1.85;;;;;;;4.10;52.68;98572.56;1800591;78;21565;-68
2021/11/30 11:24:13;;;;;;;4.62;2.00;;;;;;;4.11;52.10;98571.62;1804926;78;21077;-69
2021/11/30 11:26:48;;;;;;;4.35;1.70;;;;;;;4.14;52.13;98569.25;1803876;77;21063;-64
2021/11/30 11:29:18;;;;;;;5.73;2.03;;;;;;;4.14;51.65;98592.20;1806604;77;21045;-61
2021/11/30 11:31:47;;;;;;;5.58;2.25;;;;;;;4.14;51.29;98614.33;1784205;79;22014;-71
2021/11/30 11:34:16;;;;;;;5.92;2.08;;;;;;;4.13;51.84;98584.02;1776911;78;21014;-68
2021/11/30 11:36:44;;;;;;;5.78;2.22;;;;;;;4.13;52.14;98599.64;1799682;78;21063;-64
2021/11/30 11:39:14;;;;;;;5.97;1.80;;;;;;;4.13;51.98;98607.45;1807753;78;21042;-65
2021/11/30 11:41:40;;;;;;;7.50;2.40;;;;;;;4.13;52.05;98616.56;1805794;78;20990;-71
2021/11/30 11:44:07;;;;;;;4.70;1.77;;;;;;;4.13;52.33;98587.93;1793278;78;21096;-64
2021/11/30 11:46:36;;;;;;;5.28;2.50;;;;;;;4.16;52.27;98595.98;1752961;79;21041;-69
2021/11/30 11:49:05;;;;;;;7.03;3.15;;;;;;;4.15;52.15;98597.73;1807687;78;21120;-69
2021/11/30 11:51:40;;;;;;;5.50;2.30;;;;;;;4.17;51.96;98591.10;1790289;78;21109;-62
2021/11/30 11:54:07;;;;;;;4.30;1.72;;;;;;;4.20;51.60;98610.38;1790060;78;20998;-71
2021/11/30 11:56:35;;;;;;;5.70;2.17;;;;;;;4.20;51.63;98603.42;1787442;78;21846;-74
2021/11/30 11:59:18;;;;;;;3.98;1.60;;;;;;;4.21;51.54;98606.35;1791663;78;21572;-63
2021/11/30 12:01:51;;;;;;;5.95;2.00;;;;;;;4.20;51.39;98596.91;1810525;77;22134;-67
2021/11/30 12:04:18;;;;;;;4.67;1.42;;;;;;;4.23;51.51;98615.34;1791431;78;21512;-63
2021/11/30 12:06:56;;;;;;;5.40;2.17;;;;;;;4.21;51.29;98627.18;1809864;78;21102;-71
2021/11/30 12:09:33;;;;;;;5.00;1.43;;;;;;;4.19;51.24;98607.45;1787940;79;21862;-72
2021/11/30 12:12:15;;;;;;;4.65;1.60;;;;;;;4.18;51.43;98611.81;1792775;78;21091;-67
2021/11/30 12:14:47;;;;;;;4.42;1.75;;;;;;;4.18;51.64;98614.41;1790629;79;21491;-69
2021/11/30 12:17:27;;;;;;;5.08;1.65;;;;;;;4.21;51.75;98614.65;1783350;78;21442;-67
2021/11/30 12:20:06;;;;;;;5.90;1.57;;;;;;;4.24;52.29;98618.30;1784219;78;21033;-67